Aérodrome :
LOGIN :

S'inscrire | Disclaimer

   EN    FR    IT 

 










Légende :    VFR   VFR Marginal   IFR   IFR Intensif   IFR Très Intensif
Visi : 
Plafond : 
>= 8 km
>= 3000ft
5 à 8 km
1000 à 3000 ft
1500m à 5 km
500 à 1000 ft
800 à 1500m
200 à 500 ft
< 800m
< 200 ft
Symboles :   Orages  Brouillard  Fortes neiges  Fortes précipitations  Vent > 20 kt
SIGMETs :   Divers  Orages  Givrage  Turbulence  Onde Orograph.  Cendres Volcan.







- Altitude de l'aérodrome : 1249 ft


ETSN - Neuburg AB

DERNIER METAR :
  • 180420Z 35003KT 8000 FEW022 BKN028 OVC040 M03/M03 Q1024 BLACKBLU

METARs EXPIRÉS :
  • 180320Z 35003KT 8000 FEW028 BKN040 M02/M02 Q1024 BLACKBLU
  • 180220Z 33003KT 9000 FEW015 BKN040 M02/M03 Q1024 BLACKBLU

TAF TAF ETSN
Valide du 18 à 03h jusqu'au 18 à 12h UTC


180200Z 1803/1812 36010KT 7000 NSW BKN020
TEMPO 1803/1808 03005KT 1200 MIFG BKN004
BECMG 1808/1810 09005KT 9999 NSW SCT010 BKN030 BY ETGL
Pas de NOTAMs connus pour ce terrain.



MET'MAP, la Météo Aéronautique d'un coup d'oeil ! - Copyright ORBIFLY Décembre 2007 - Disclaimer

ORBIFLY MET'MAP TEAM :

Programmation & Développement : Alexandra Zaïnal
Conception & Développement : Baudouin d'Aumeries
Co-Programmation & Développement : Marc-Olivier Méhu
Soutien technique & logistique : Manuel Goepfert

Contact : metmap@orbifly.com




SOURCES & CREDITS :

   NOAA